createdAt,value
2022-11-17T00:00:19.444Z,22.23
2022-11-17T00:03:02.774Z,20.25
2022-11-17T00:05:29.759Z,24.45
2022-11-17T00:07:57.313Z,24.10
2022-11-17T00:10:24.355Z,24.77
2022-11-17T00:13:10.445Z,25.33
2022-11-17T00:15:37.599Z,24.63
2022-11-17T00:18:23.581Z,25.40
2022-11-17T00:21:09.386Z,23.40
2022-11-17T00:23:50.562Z,23.02
2022-11-17T00:26:21.240Z,24.33
2022-11-17T00:28:53.600Z,26.13
2022-11-17T00:31:39.732Z,24.00
2022-11-17T00:34:08.059Z,23.45
2022-11-17T00:36:41.241Z,25.48
2022-11-17T00:39:10.234Z,21.50
2022-11-17T00:41:37.362Z,22.88
2022-11-17T00:44:05.616Z,21.52
2022-11-17T00:46:33.320Z,22.33
2022-11-17T00:49:00.779Z,20.65
2022-11-17T00:51:28.103Z,24.88
2022-11-17T00:53:55.578Z,23.45
2022-11-17T00:56:23.973Z,20.23
2022-11-17T00:58:52.258Z,20.90
2022-11-17T01:01:19.806Z,22.60
2022-11-17T01:03:47.616Z,26.35
2022-11-17T01:06:20.270Z,24.13
2022-11-17T01:08:47.778Z,24.85
2022-11-17T01:11:17.755Z,24.67
2022-11-17T01:13:46.951Z,22.85
2022-11-17T01:16:20.929Z,22.48
2022-11-17T01:18:50.944Z,27.90
2022-11-17T01:21:24.133Z,24.27
2022-11-17T01:23:54.416Z,26.70
2022-11-17T01:26:27.342Z,25.05
2022-11-17T01:28:55.508Z,25.83
2022-11-17T01:31:28.465Z,20.15
2022-11-17T01:33:56.500Z,19.25
2022-11-17T01:36:31.164Z,23.38
2022-11-17T01:38:58.456Z,23.95
2022-11-17T01:41:28.797Z,24.75
2022-11-17T01:43:59.833Z,24.25
2022-11-17T01:46:29.761Z,23.98
2022-11-17T01:49:05.381Z,23.88
2022-11-17T01:51:37.923Z,26.92
2022-11-17T01:54:06.172Z,25.42
2022-11-17T01:56:40.218Z,25.05
2022-11-17T01:59:15.364Z,23.73
2022-11-17T02:01:55.986Z,24.77
2022-11-17T02:04:31.705Z,21.88
2022-11-17T02:07:05.440Z,26.95
2022-11-17T02:09:37.444Z,25.05
2022-11-17T02:12:06.317Z,26.77
2022-11-17T02:14:34.587Z,26.95
2022-11-17T02:17:11.554Z,23.88
2022-11-17T02:19:44.380Z,21.50
2022-11-17T02:22:37.942Z,26.88
2022-11-17T02:25:53.689Z,25.45
2022-11-17T02:28:30.503Z,24.40
2022-11-17T02:31:00.749Z,22.08
2022-11-17T02:33:37.276Z,24.75
2022-11-17T02:36:14.291Z,19.70
2022-11-17T02:39:00.202Z,20.38
2022-11-17T02:41:35.154Z,25.48
2022-11-17T02:44:40.093Z,22.13
2022-11-17T02:47:12.827Z,26.25
2022-11-17T02:49:47.275Z,23.88
2022-11-17T02:52:17.971Z,27.13
2022-11-17T02:54:45.015Z,22.42
2022-11-17T02:57:35.769Z,22.08
2022-11-17T03:00:12.201Z,24.45
2022-11-17T03:02:45.579Z,25.27
2022-11-17T03:05:34.213Z,22.55
2022-11-17T03:08:37.929Z,25.00
2022-11-17T03:11:07.805Z,26.00
2022-11-17T03:13:45.112Z,25.85
2022-11-17T03:16:31.232Z,25.08
2022-11-17T03:19:27.534Z,25.60
2022-11-17T03:22:05.261Z,27.08
2022-11-17T03:25:02.123Z,26.50
2022-11-17T03:27:35.409Z,26.23
2022-11-17T03:30:07.529Z,25.48
2022-11-17T03:32:38.623Z,26.40
2022-11-17T03:35:12.126Z,26.90
2022-11-17T03:37:46.070Z,25.65
2022-11-17T03:40:19.833Z,27.73
2022-11-17T03:42:52.849Z,23.17
2022-11-17T03:45:26.415Z,19.42
2022-11-17T03:48:17.544Z,20.15
2022-11-17T03:50:52.421Z,21.05
2022-11-17T03:53:21.010Z,26.83
2022-11-17T03:56:01.303Z,24.23
2022-11-17T03:58:32.652Z,19.92
2022-11-17T04:01:03.792Z,17.48
2022-11-17T04:03:34.240Z,21.83
2022-11-17T04:06:02.181Z,29.73
2022-11-17T04:08:30.862Z,28.75
2022-11-17T04:11:16.935Z,26.45
2022-11-17T04:14:02.828Z,21.48
2022-11-17T04:16:30.245Z,19.90
2022-11-17T04:18:58.875Z,25.65
2022-11-17T04:21:27.215Z,20.02
2022-11-17T04:23:54.226Z,16.63
2022-11-17T04:27:22.328Z,23.17
2022-11-17T04:29:49.354Z,24.60
2022-11-17T04:32:16.852Z,20.45
2022-11-17T04:34:44.104Z,19.25
2022-11-17T04:37:17.567Z,20.52
2022-11-17T04:39:46.051Z,19.25
2022-11-17T04:42:13.640Z,23.65
2022-11-17T04:44:42.911Z,14.32
2022-11-17T04:47:10.529Z,20.67
2022-11-17T04:49:41.427Z,16.20
2022-11-17T04:52:08.878Z,23.77
2022-11-17T04:54:35.863Z,20.45
2022-11-17T04:57:03.790Z,19.25
2022-11-17T04:59:30.802Z,16.10
2022-11-17T05:02:02.622Z,15.77
2022-11-17T05:04:51.446Z,17.60
2022-11-17T05:07:18.877Z,18.67
2022-11-17T05:09:46.003Z,17.52
2022-11-17T05:12:33.621Z,21.60
2022-11-17T05:15:04.942Z,24.02
2022-11-17T05:17:33.953Z,21.50
2022-11-17T05:20:01.478Z,16.80
2022-11-17T05:22:47.408Z,17.45
2022-11-17T05:25:14.482Z,21.25
2022-11-17T05:27:42.747Z,17.75
2022-11-17T05:30:11.213Z,14.95
2022-11-17T05:35:12.851Z,17.75
2022-11-17T05:37:41.096Z,14.55
2022-11-17T05:40:09.317Z,13.07
2022-11-17T05:42:37.255Z,19.30
2022-11-17T05:45:11.774Z,17.90
2022-11-17T05:47:39.580Z,13.25
2022-11-17T05:50:07.086Z,16.65
2022-11-17T05:52:34.704Z,17.13
2022-11-17T05:55:04.336Z,16.27
2022-11-17T05:57:32.831Z,14.75
2022-11-17T06:00:04.722Z,17.95
2022-11-17T06:02:38.794Z,21.08
2022-11-17T06:05:06.505Z,17.45
2022-11-17T06:07:36.190Z,17.50
2022-11-17T06:10:03.612Z,22.83
2022-11-17T06:12:31.200Z,17.83
2022-11-17T06:14:58.196Z,20.58
2022-11-17T06:17:33.877Z,16.13
2022-11-17T06:20:17.741Z,14.32
2022-11-17T06:22:48.298Z,18.13
2022-11-17T06:25:18.957Z,13.70
2022-11-17T06:27:48.419Z,19.00
2022-11-17T06:30:15.591Z,21.52
2022-11-17T06:32:44.013Z,14.43
2022-11-17T06:35:14.555Z,19.60
2022-11-17T06:37:42.746Z,16.50
2022-11-17T06:40:10.561Z,24.52
2022-11-17T06:42:59.360Z,21.92
2022-11-17T06:45:26.703Z,18.10
2022-11-17T06:47:54.420Z,16.77
2022-11-17T06:50:21.410Z,17.30
2022-11-17T06:52:51.840Z,15.70
2022-11-17T06:58:08.787Z,12.45
2022-11-17T07:00:36.732Z,16.98
2022-11-17T07:03:09.405Z,18.45
2022-11-17T07:05:40.320Z,15.73
2022-11-17T07:08:10.385Z,20.58
2022-11-17T07:10:37.863Z,22.27
2022-11-17T07:13:05.324Z,16.17
2022-11-17T07:15:32.491Z,15.85
2022-11-17T07:17:59.946Z,19.88
2022-11-17T07:20:27.171Z,23.48
2022-11-17T07:23:01.385Z,19.17
2022-11-17T07:25:29.506Z,25.55
2022-11-17T07:28:09.803Z,17.80
2022-11-17T07:31:08.848Z,17.63
2022-11-17T07:33:36.632Z,18.52
2022-11-17T07:36:11.347Z,21.60
2022-11-17T07:38:40.420Z,19.98
2022-11-17T07:41:09.436Z,19.58
2022-11-17T07:43:37.124Z,16.27
2022-11-17T07:46:11.197Z,20.95
2022-11-17T07:48:40.178Z,18.58
2022-11-17T07:51:09.733Z,26.20
2022-11-17T07:53:39.198Z,17.58
2022-11-17T07:56:13.230Z,21.73
2022-11-17T07:58:43.700Z,16.85
2022-11-17T08:01:17.051Z,19.58
2022-11-17T08:03:44.877Z,19.27
2022-11-17T08:06:14.510Z,17.42
2022-11-17T08:08:49.758Z,20.63
2022-11-17T08:14:04.891Z,18.85
2022-11-17T08:16:35.065Z,16.55
2022-11-17T08:19:06.354Z,19.35
2022-11-17T08:21:33.568Z,21.33
2022-11-17T08:26:29.918Z,15.43
2022-11-17T08:29:02.753Z,20.90
2022-11-17T08:31:29.830Z,18.92
2022-11-17T08:33:57.542Z,18.05
2022-11-17T08:36:26.982Z,15.80
2022-11-17T08:38:54.564Z,16.90
2022-11-17T08:41:24.761Z,20.75
2022-11-17T08:43:52.768Z,18.02
2022-11-17T08:46:20.092Z,18.30
2022-11-17T08:48:53.877Z,16.92
2022-11-17T08:51:25.094Z,19.15
2022-11-17T08:53:54.135Z,13.68
2022-11-17T08:56:21.852Z,17.45
2022-11-17T08:58:52.477Z,22.88
2022-11-17T09:01:19.808Z,18.05
2022-11-17T09:03:48.282Z,16.20
2022-11-17T09:06:16.712Z,18.27
2022-11-17T09:08:46.723Z,21.60
2022-11-17T09:11:15.184Z,19.83
2022-11-17T09:13:42.924Z,14.35
2022-11-17T09:16:11.885Z,12.93
2022-11-17T09:18:40.832Z,16.85
2022-11-17T09:21:14.066Z,13.60
2022-11-17T09:23:41.790Z,15.95
2022-11-17T09:26:11.903Z,14.70
2022-11-17T09:28:44.631Z,18.15
2022-11-17T09:34:07.418Z,14.90
2022-11-17T09:36:34.544Z,20.40
2022-11-17T09:39:02.062Z,12.00
2022-11-17T09:45:28.365Z,17.58
2022-11-17T09:48:41.036Z,17.23
2022-11-17T09:51:12.640Z,10.13
2022-11-17T09:54:08.166Z,7.05
2022-11-17T09:59:06.552Z,7.75
2022-11-17T10:01:36.613Z,8.52
2022-11-17T10:04:12.724Z,12.20
2022-11-17T10:06:42.661Z,13.07
2022-11-17T10:09:28.881Z,15.40
2022-11-17T10:12:13.236Z,11.95
2022-11-17T10:14:41.259Z,14.00
2022-11-17T10:17:10.806Z,35.72
2022-11-17T10:19:38.412Z,28.40
2022-11-17T10:22:05.499Z,15.02
2022-11-17T10:24:35.908Z,14.18
2022-11-17T10:27:07.286Z,12.40
2022-11-17T10:29:37.640Z,10.77
2022-11-17T10:32:17.555Z,14.52
2022-11-17T10:34:47.661Z,16.17
2022-11-17T10:37:16.459Z,12.43
2022-11-17T10:42:27.809Z,8.07
2022-11-17T10:44:58.972Z,7.90
2022-11-17T10:47:39.249Z,7.00
2022-11-17T10:50:20.816Z,9.25
2022-11-17T10:52:49.564Z,6.90
2022-11-17T10:55:24.441Z,8.30
2022-11-17T10:58:20.761Z,4.95
2022-11-17T11:00:54.644Z,5.95
2022-11-17T11:03:24.738Z,8.23
2022-11-17T11:06:26.752Z,7.43
2022-11-17T11:09:21.568Z,7.15
2022-11-17T11:11:54.065Z,4.65
2022-11-17T11:14:24.983Z,3.15
2022-11-17T11:16:52.554Z,6.45
2022-11-17T11:19:20.958Z,7.05
2022-11-17T11:22:21.362Z,5.15
2022-11-17T11:24:58.727Z,4.47
2022-11-17T11:27:52.807Z,3.53
2022-11-17T11:30:20.106Z,2.58
2022-11-17T11:32:56.544Z,5.07
2022-11-17T11:35:51.706Z,6.40
2022-11-17T11:38:30.562Z,7.47
2022-11-17T11:41:21.471Z,9.75
2022-11-17T11:44:24.432Z,6.78
2022-11-17T11:47:10.156Z,5.05
2022-11-17T11:49:56.183Z,2.88
2022-11-17T11:52:31.505Z,2.25
2022-11-17T11:58:13.182Z,3.63
2022-11-17T12:01:28.496Z,5.28
2022-11-17T12:04:18.955Z,5.78
2022-11-17T12:07:19.880Z,6.32
2022-11-17T12:10:23.566Z,6.68
2022-11-17T12:12:51.303Z,6.32
2022-11-17T12:15:18.641Z,8.10
2022-11-17T12:17:54.858Z,4.78
2022-11-17T12:20:41.148Z,4.65
2022-11-17T12:23:27.371Z,8.55
2022-11-17T12:25:57.940Z,6.75
2022-11-17T12:28:41.685Z,6.85
2022-11-17T12:31:31.707Z,7.13
2022-11-17T12:34:01.759Z,7.70
2022-11-17T12:36:35.724Z,9.73
2022-11-17T12:39:07.277Z,6.93
2022-11-17T12:41:49.995Z,8.00
2022-11-17T12:44:32.487Z,6.80
2022-11-17T12:47:21.500Z,6.75
2022-11-17T12:52:37.840Z,7.28
2022-11-17T12:55:29.217Z,5.40
2022-11-17T12:58:11.686Z,4.55
2022-11-17T13:00:53.859Z,3.92
2022-11-17T13:03:46.078Z,4.93
2022-11-17T13:09:13.327Z,5.82
2022-11-17T13:11:41.037Z,5.07
2022-11-17T13:14:17.110Z,7.63
2022-11-17T13:16:50.621Z,4.68
2022-11-17T13:19:31.997Z,5.93
2022-11-17T13:22:02.050Z,6.15
2022-11-17T13:24:36.923Z,7.07
2022-11-17T13:29:36.004Z,8.45
2022-11-17T13:32:30.524Z,9.77
2022-11-17T13:34:58.099Z,9.07
2022-11-17T13:37:27.941Z,9.70
2022-11-17T13:39:55.056Z,8.30
2022-11-17T13:42:25.408Z,8.00
2022-11-17T13:44:56.171Z,8.77
2022-11-17T13:47:48.096Z,10.15
2022-11-17T13:50:34.904Z,8.45
2022-11-17T13:53:26.385Z,9.00
2022-11-17T13:55:53.490Z,8.60
2022-11-17T13:58:29.383Z,8.68
2022-11-17T14:03:42.680Z,8.10
2022-11-17T14:06:14.955Z,7.30
2022-11-17T14:09:01.537Z,6.20
2022-11-17T14:11:28.869Z,6.85
2022-11-17T14:13:59.128Z,6.40
2022-11-17T14:16:32.777Z,7.18
2022-11-17T14:19:14.533Z,6.93
2022-11-17T14:22:24.720Z,6.50
2022-11-17T14:24:56.782Z,5.63
2022-11-17T14:27:26.871Z,6.65
2022-11-17T14:29:54.216Z,6.15
2022-11-17T14:32:21.462Z,6.18
2022-11-17T14:34:49.056Z,4.20
2022-11-17T14:37:16.043Z,6.25
2022-11-17T14:39:43.428Z,6.15
2022-11-17T14:42:13.779Z,5.80
2022-11-17T14:44:44.263Z,6.38
2022-11-17T14:47:11.382Z,6.95
2022-11-17T14:49:38.797Z,6.95
2022-11-17T14:52:05.761Z,9.20
2022-11-17T14:54:33.088Z,8.32
2022-11-17T14:57:00.719Z,8.68
2022-11-17T14:59:28.123Z,12.10
2022-11-17T15:01:55.206Z,9.88
2022-11-17T15:04:50.083Z,8.10
2022-11-17T15:07:09.667Z,6.88
2022-11-17T15:09:37.057Z,8.05
2022-11-17T15:12:06.639Z,7.55
2022-11-17T15:14:34.125Z,8.63
2022-11-17T15:17:01.241Z,8.30
2022-11-17T15:19:29.216Z,8.55
2022-11-17T15:21:56.279Z,8.85
2022-11-17T15:24:23.982Z,7.07
2022-11-17T15:26:51.022Z,7.15
2022-11-17T15:30:12.955Z,9.65
2022-11-17T15:32:45.684Z,6.50
2022-11-17T15:35:13.276Z,8.93
2022-11-17T15:37:41.117Z,8.73
2022-11-17T15:40:09.241Z,7.82
2022-11-17T15:42:36.289Z,7.70
2022-11-17T15:45:04.102Z,8.82
2022-11-17T15:47:31.049Z,6.90
2022-11-17T15:50:01.216Z,10.18
2022-11-17T15:52:48.629Z,8.70
2022-11-17T15:55:15.665Z,5.85
2022-11-17T15:57:43.447Z,9.25
2022-11-17T16:00:15.824Z,8.32
2022-11-17T16:02:43.083Z,9.85
2022-11-17T16:05:19.552Z,9.55
2022-11-17T16:07:47.471Z,7.22
2022-11-17T16:10:15.343Z,8.40
2022-11-17T16:12:42.592Z,8.00
2022-11-17T16:15:10.356Z,7.80
2022-11-17T16:17:37.477Z,5.72
2022-11-17T16:20:05.542Z,8.07
2022-11-17T16:22:42.824Z,8.20
2022-11-17T16:25:10.656Z,8.60
2022-11-17T16:27:40.936Z,8.05
2022-11-17T16:30:08.732Z,6.10
2022-11-17T16:32:36.485Z,7.57
2022-11-17T16:35:06.813Z,8.13
2022-11-17T16:37:36.797Z,6.22
2022-11-17T16:40:07.377Z,5.65
2022-11-17T16:42:34.487Z,3.85
2022-11-17T16:47:52.974Z,2.50
2022-11-17T16:50:20.742Z,4.38
2022-11-17T16:52:48.770Z,2.40
2022-11-17T16:55:16.169Z,1.90
2022-11-17T16:57:43.114Z,1.65
2022-11-17T17:00:11.354Z,1.30
2022-11-17T17:02:38.360Z,1.05
2022-11-17T17:05:05.840Z,1.55
2022-11-17T17:07:35.351Z,2.45
2022-11-17T17:10:02.799Z,2.55
2022-11-17T17:12:30.506Z,2.90
2022-11-17T17:14:57.942Z,2.88
2022-11-17T17:17:24.972Z,3.42
2022-11-17T17:19:52.261Z,2.20
2022-11-17T17:22:19.338Z,2.83
2022-11-17T17:24:52.587Z,3.13
2022-11-17T17:27:19.726Z,2.70
2022-11-17T17:29:47.245Z,3.75
2022-11-17T17:32:14.227Z,2.53
2022-11-17T17:34:41.625Z,2.30
2022-11-17T17:37:08.723Z,2.90
2022-11-17T17:39:36.133Z,2.35
2022-11-17T17:42:03.230Z,2.53
2022-11-17T17:44:30.707Z,1.88
2022-11-17T17:50:45.400Z,1.90
2022-11-17T17:53:14.236Z,3.25
2022-11-17T17:55:42.017Z,3.22
2022-11-17T18:00:55.221Z,2.28
2022-11-17T18:03:23.731Z,1.77
2022-11-17T18:06:17.524Z,2.10
2022-11-17T18:08:45.954Z,1.75
2022-11-17T18:11:17.125Z,1.98
2022-11-17T18:13:57.824Z,1.77
2022-11-17T18:16:40.650Z,1.55
2022-11-17T18:19:15.662Z,1.23
2022-11-17T18:21:45.876Z,1.38
2022-11-17T18:24:19.024Z,1.85
2022-11-17T18:27:23.636Z,1.60
2022-11-17T18:30:01.012Z,1.23
2022-11-17T18:32:30.561Z,2.25
2022-11-17T18:35:12.106Z,2.10
2022-11-17T18:37:40.543Z,1.73
2022-11-17T18:40:11.498Z,1.83
2022-11-17T18:42:38.687Z,2.00
2022-11-17T18:45:06.604Z,2.58
2022-11-17T18:47:33.761Z,2.28
2022-11-17T18:50:01.091Z,2.63
2022-11-17T18:52:31.402Z,2.10
2022-11-17T18:55:01.465Z,1.50
2022-11-17T18:57:30.874Z,1.98
2022-11-17T18:59:58.618Z,2.10
2022-11-17T19:02:25.683Z,2.45
2022-11-17T19:04:53.169Z,1.65
2022-11-17T19:07:20.238Z,1.70
2022-11-17T19:09:50.725Z,2.45
2022-11-17T19:12:19.063Z,2.42
2022-11-17T19:14:48.609Z,3.13
2022-11-17T19:17:15.584Z,2.22
2022-11-17T19:19:42.874Z,1.73
2022-11-17T19:22:09.980Z,2.55
2022-11-17T19:24:38.892Z,2.15
2022-11-17T19:27:06.016Z,1.45
2022-11-17T19:29:38.890Z,2.13
2022-11-17T19:32:06.158Z,2.95
2022-11-17T19:34:35.976Z,2.85
2022-11-17T19:39:30.124Z,2.20
2022-11-17T19:41:59.892Z,2.60
2022-11-17T19:44:29.636Z,2.42
2022-11-17T19:46:57.152Z,1.75
2022-11-17T19:49:29.591Z,1.85
2022-11-17T19:53:00.241Z,1.63
2022-11-17T19:55:13.917Z,3.30
2022-11-17T19:57:44.846Z,3.40
2022-11-17T20:00:12.951Z,4.18
2022-11-17T20:02:40.733Z,2.35
2022-11-17T20:05:10.998Z,4.20
2022-11-17T20:07:38.437Z,3.78
2022-11-17T20:10:06.206Z,2.47
2022-11-17T20:12:34.614Z,1.95
2022-11-17T20:15:02.328Z,2.60
2022-11-17T20:17:29.528Z,2.25
2022-11-17T20:19:56.999Z,2.17
2022-11-17T20:22:24.014Z,3.03
2022-11-17T20:24:51.793Z,2.75
2022-11-17T20:27:19.405Z,2.45
2022-11-17T20:29:46.797Z,3.75
2022-11-17T20:32:13.897Z,2.50
2022-11-17T20:35:26.408Z,3.38
2022-11-17T20:38:02.286Z,2.45
2022-11-17T20:40:31.313Z,1.60
2022-11-17T20:42:58.461Z,2.17
2022-11-17T20:45:27.150Z,3.28
2022-11-17T20:47:54.808Z,1.35
2022-11-17T20:50:22.344Z,2.13
2022-11-17T20:52:49.359Z,2.22
2022-11-17T20:55:19.404Z,2.10
2022-11-17T20:57:46.374Z,2.55
2022-11-17T21:00:14.439Z,1.75
2022-11-17T21:02:41.529Z,2.28
2022-11-17T21:05:14.502Z,2.05
2022-11-17T21:07:41.615Z,3.08
2022-11-17T21:10:09.398Z,2.95
2022-11-17T21:12:36.414Z,2.40
2022-11-17T21:15:04.105Z,2.92
2022-11-17T21:20:58.372Z,2.35
2022-11-17T21:23:26.059Z,3.47
2022-11-17T21:25:54.065Z,2.83
2022-11-17T21:28:29.963Z,2.63
2022-11-17T21:31:06.840Z,3.05
2022-11-17T21:33:34.992Z,2.35
2022-11-17T21:36:10.992Z,3.20
2022-11-17T21:38:38.337Z,3.53
2022-11-17T21:41:15.428Z,3.30
2022-11-17T21:43:49.735Z,5.25
2022-11-17T21:46:33.821Z,2.75
2022-11-17T21:49:02.114Z,3.30
2022-11-17T21:51:34.387Z,3.15
2022-11-17T21:54:05.461Z,2.33
2022-11-17T21:56:32.675Z,2.80
2022-11-17T21:59:03.758Z,2.45
2022-11-17T22:01:32.967Z,3.08
2022-11-17T22:04:01.441Z,3.40
2022-11-17T22:06:33.772Z,3.25
2022-11-17T22:09:05.257Z,2.58
2022-11-17T22:11:36.004Z,3.50
2022-11-17T22:14:16.038Z,1.90
2022-11-17T22:16:46.927Z,3.25
2022-11-17T22:19:16.964Z,2.55
2022-11-17T22:24:28.871Z,3.35
2022-11-17T22:26:58.271Z,3.65
2022-11-17T22:29:27.182Z,3.53
2022-11-17T22:31:56.199Z,3.83
2022-11-17T22:34:23.496Z,3.25
2022-11-17T22:36:50.439Z,3.90
2022-11-17T22:39:18.681Z,4.10
2022-11-17T22:41:45.874Z,4.10
2022-11-17T22:44:14.637Z,3.05
2022-11-17T22:46:43.307Z,4.38
2022-11-17T22:49:11.396Z,4.05
2022-11-17T22:51:57.162Z,3.72
2022-11-17T22:54:24.447Z,3.92
2022-11-17T22:56:51.427Z,4.38
2022-11-17T22:59:20.172Z,4.43
2022-11-17T23:01:48.465Z,4.22
2022-11-17T23:04:17.884Z,3.80
2022-11-17T23:06:45.398Z,4.10
2022-11-17T23:09:13.043Z,4.28
2022-11-17T23:11:40.856Z,4.47
2022-11-17T23:14:13.744Z,4.70
2022-11-17T23:16:43.738Z,4.85
2022-11-17T23:19:16.016Z,4.15
2022-11-17T23:21:43.853Z,4.32
2022-11-17T23:24:12.917Z,4.78
2022-11-17T23:26:41.741Z,4.63
2022-11-17T23:29:09.512Z,5.55
2022-11-17T23:31:36.848Z,4.88
2022-11-17T23:34:04.613Z,5.50
2022-11-17T23:36:31.956Z,4.65
2022-11-17T23:38:59.435Z,5.55
2022-11-17T23:41:26.738Z,5.43
2022-11-17T23:43:54.826Z,4.28
2022-11-17T23:46:24.477Z,4.38
2022-11-17T23:48:55.188Z,3.80
2022-11-17T23:51:24.147Z,5.10
2022-11-17T23:53:53.284Z,5.80
2022-11-17T23:56:20.909Z,5.47
2022-11-17T23:58:52.631Z,5.25
